sensor_id;sensor_type;location;lat;lon;timestamp;P1;durP1;ratioP1;P2;durP2;ratioP2
21110;SDS011;10713;51.912;4.494;2024-02-28T00:00:09;2.60;;;1.70;;
21110;SDS011;10713;51.912;4.494;2024-02-28T00:02:36;10.85;;;1.92;;
21110;SDS011;10713;51.912;4.494;2024-02-28T00:05:01;1.70;;;1.25;;
21110;SDS011;10713;51.912;4.494;2024-02-28T00:07:27;3.05;;;1.50;;
21110;SDS011;10713;51.912;4.494;2024-02-28T00:09:52;5.22;;;1.70;;
21110;SDS011;10713;51.912;4.494;2024-02-28T00:12:22;1.88;;;1.38;;
21110;SDS011;10713;51.912;4.494;2024-02-28T00:14:50;2.22;;;1.58;;
21110;SDS011;10713;51.912;4.494;2024-02-28T00:17:15;3.53;;;1.88;;
21110;SDS011;10713;51.912;4.494;2024-02-28T00:19:40;3.50;;;1.23;;
21110;SDS011;10713;51.912;4.494;2024-02-28T00:22:07;2.92;;;1.83;;
21110;SDS011;10713;51.912;4.494;2024-02-28T00:24:33;2.35;;;1.45;;
21110;SDS011;10713;51.912;4.494;2024-02-28T00:26:58;2.13;;;1.45;;
21110;SDS011;10713;51.912;4.494;2024-02-28T00:29:23;3.13;;;1.67;;
21110;SDS011;10713;51.912;4.494;2024-02-28T00:31:49;5.88;;;1.92;;
21110;SDS011;10713;51.912;4.494;2024-02-28T00:34:14;1.80;;;1.27;;
21110;SDS011;10713;51.912;4.494;2024-02-28T00:36:42;5.25;;;2.28;;
21110;SDS011;10713;51.912;4.494;2024-02-28T00:39:07;2.10;;;1.33;;
21110;SDS011;10713;51.912;4.494;2024-02-28T00:41:33;2.83;;;1.50;;
21110;SDS011;10713;51.912;4.494;2024-02-28T00:43:58;3.28;;;1.40;;
21110;SDS011;10713;51.912;4.494;2024-02-28T00:46:23;2.00;;;1.20;;
21110;SDS011;10713;51.912;4.494;2024-02-28T00:48:49;4.88;;;1.50;;
21110;SDS011;10713;51.912;4.494;2024-02-28T00:51:14;3.88;;;2.15;;
21110;SDS011;10713;51.912;4.494;2024-02-28T00:53:40;2.40;;;1.40;;
21110;SDS011;10713;51.912;4.494;2024-02-28T00:56:06;2.30;;;1.50;;
21110;SDS011;10713;51.912;4.494;2024-02-28T00:58:31;2.17;;;1.45;;
21110;SDS011;10713;51.912;4.494;2024-02-28T01:00:57;5.50;;;2.30;;
21110;SDS011;10713;51.912;4.494;2024-02-28T01:03:22;4.15;;;1.77;;
21110;SDS011;10713;51.912;4.494;2024-02-28T01:05:50;3.50;;;1.85;;
21110;SDS011;10713;51.912;4.494;2024-02-28T01:08:16;3.17;;;2.10;;
21110;SDS011;10713;51.912;4.494;2024-02-28T01:10:44;4.53;;;1.92;;
21110;SDS011;10713;51.912;4.494;2024-02-28T01:13:10;2.30;;;1.60;;
21110;SDS011;10713;51.912;4.494;2024-02-28T01:15:35;4.80;;;2.10;;
21110;SDS011;10713;51.912;4.494;2024-02-28T01:18:01;6.35;;;2.30;;
21110;SDS011;10713;51.912;4.494;2024-02-28T01:20:26;4.32;;;1.85;;
21110;SDS011;10713;51.912;4.494;2024-02-28T01:22:52;8.07;;;2.28;;
21110;SDS011;10713;51.912;4.494;2024-02-28T01:25:17;3.63;;;1.95;;
21110;SDS011;10713;51.912;4.494;2024-02-28T01:27:43;5.18;;;1.90;;
21110;SDS011;10713;51.912;4.494;2024-02-28T01:30:09;5.13;;;2.10;;
21110;SDS011;10713;51.912;4.494;2024-02-28T01:32:34;3.80;;;1.90;;
21110;SDS011;10713;51.912;4.494;2024-02-28T01:35:00;3.53;;;1.63;;
21110;SDS011;10713;51.912;4.494;2024-02-28T01:37:27;2.42;;;1.60;;
21110;SDS011;10713;51.912;4.494;2024-02-28T01:39:52;6.13;;;2.45;;
21110;SDS011;10713;51.912;4.494;2024-02-28T01:42:18;4.47;;;2.47;;
21110;SDS011;10713;51.912;4.494;2024-02-28T01:44:45;10.95;;;2.65;;
21110;SDS011;10713;51.912;4.494;2024-02-28T01:47:13;9.48;;;2.65;;
21110;SDS011;10713;51.912;4.494;2024-02-28T01:49:39;5.13;;;2.67;;
21110;SDS011;10713;51.912;4.494;2024-02-28T01:52:06;4.05;;;2.38;;
21110;SDS011;10713;51.912;4.494;2024-02-28T01:54:33;9.57;;;2.38;;
21110;SDS011;10713;51.912;4.494;2024-02-28T01:57:00;9.32;;;2.83;;
21110;SDS011;10713;51.912;4.494;2024-02-28T01:59:26;6.93;;;2.80;;
21110;SDS011;10713;51.912;4.494;2024-02-28T02:01:54;5.07;;;2.65;;
21110;SDS011;10713;51.912;4.494;2024-02-28T02:04:20;4.68;;;2.65;;
21110;SDS011;10713;51.912;4.494;2024-02-28T02:06:45;6.07;;;2.78;;
21110;SDS011;10713;51.912;4.494;2024-02-28T02:09:12;4.47;;;2.33;;
21110;SDS011;10713;51.912;4.494;2024-02-28T02:11:38;5.78;;;2.92;;
21110;SDS011;10713;51.912;4.494;2024-02-28T02:14:04;5.63;;;2.80;;
21110;SDS011;10713;51.912;4.494;2024-02-28T02:16:29;7.38;;;2.70;;
21110;SDS011;10713;51.912;4.494;2024-02-28T02:18:55;7.20;;;3.20;;
21110;SDS011;10713;51.912;4.494;2024-02-28T02:21:22;5.80;;;2.80;;
21110;SDS011;10713;51.912;4.494;2024-02-28T02:23:49;8.00;;;2.97;;
21110;SDS011;10713;51.912;4.494;2024-02-28T02:26:14;17.45;;;3.65;;
21110;SDS011;10713;51.912;4.494;2024-02-28T02:28:40;6.30;;;2.58;;
21110;SDS011;10713;51.912;4.494;2024-02-28T02:31:05;4.57;;;2.80;;
21110;SDS011;10713;51.912;4.494;2024-02-28T02:33:30;7.03;;;3.40;;
21110;SDS011;10713;51.912;4.494;2024-02-28T02:35:56;11.02;;;3.42;;
21110;SDS011;10713;51.912;4.494;2024-02-28T02:38:21;6.45;;;3.40;;
21110;SDS011;10713;51.912;4.494;2024-02-28T02:40:50;4.75;;;2.45;;
21110;SDS011;10713;51.912;4.494;2024-02-28T02:43:16;6.57;;;2.63;;
21110;SDS011;10713;51.912;4.494;2024-02-28T02:45:42;7.07;;;3.13;;
21110;SDS011;10713;51.912;4.494;2024-02-28T02:48:08;5.20;;;2.83;;
21110;SDS011;10713;51.912;4.494;2024-02-28T02:50:33;8.10;;;2.65;;
21110;SDS011;10713;51.912;4.494;2024-02-28T02:52:59;6.75;;;2.90;;
21110;SDS011;10713;51.912;4.494;2024-02-28T02:55:24;5.28;;;2.72;;
21110;SDS011;10713;51.912;4.494;2024-02-28T02:57:50;5.10;;;2.47;;
21110;SDS011;10713;51.912;4.494;2024-02-28T03:00:15;5.18;;;2.92;;
21110;SDS011;10713;51.912;4.494;2024-02-28T03:02:40;6.38;;;2.78;;
21110;SDS011;10713;51.912;4.494;2024-02-28T03:05:06;4.93;;;2.45;;
21110;SDS011;10713;51.912;4.494;2024-02-28T03:07:32;6.22;;;2.60;;
21110;SDS011;10713;51.912;4.494;2024-02-28T03:09:57;6.45;;;3.17;;
21110;SDS011;10713;51.912;4.494;2024-02-28T03:12:23;3.83;;;1.95;;
21110;SDS011;10713;51.912;4.494;2024-02-28T03:14:48;8.40;;;2.10;;
21110;SDS011;10713;51.912;4.494;2024-02-28T03:17:14;8.77;;;2.70;;
21110;SDS011;10713;51.912;4.494;2024-02-28T03:19:40;10.32;;;2.72;;
21110;SDS011;10713;51.912;4.494;2024-02-28T03:22:06;3.97;;;2.47;;
21110;SDS011;10713;51.912;4.494;2024-02-28T03:24:31;7.57;;;2.60;;
21110;SDS011;10713;51.912;4.494;2024-02-28T03:26:59;4.13;;;2.25;;
21110;SDS011;10713;51.912;4.494;2024-02-28T03:29:25;7.80;;;3.22;;
21110;SDS011;10713;51.912;4.494;2024-02-28T03:31:50;7.68;;;2.92;;
21110;SDS011;10713;51.912;4.494;2024-02-28T03:34:15;5.60;;;3.30;;
21110;SDS011;10713;51.912;4.494;2024-02-28T03:36:41;8.68;;;3.80;;
21110;SDS011;10713;51.912;4.494;2024-02-28T03:39:06;9.77;;;3.28;;
21110;SDS011;10713;51.912;4.494;2024-02-28T03:41:31;8.90;;;2.88;;
21110;SDS011;10713;51.912;4.494;2024-02-28T03:43:57;5.72;;;3.25;;
21110;SDS011;10713;51.912;4.494;2024-02-28T03:46:22;6.57;;;3.47;;
21110;SDS011;10713;51.912;4.494;2024-02-28T03:48:48;2.70;;;2.10;;
21110;SDS011;10713;51.912;4.494;2024-02-28T03:51:13;8.95;;;3.95;;
21110;SDS011;10713;51.912;4.494;2024-02-28T03:53:40;7.07;;;3.10;;
21110;SDS011;10713;51.912;4.494;2024-02-28T03:56:06;9.15;;;3.65;;
21110;SDS011;10713;51.912;4.494;2024-02-28T03:58:31;9.50;;;3.55;;
21110;SDS011;10713;51.912;4.494;2024-02-28T04:00:56;6.75;;;3.60;;
21110;SDS011;10713;51.912;4.494;2024-02-28T04:03:22;6.68;;;3.15;;
21110;SDS011;10713;51.912;4.494;2024-02-28T04:05:47;6.03;;;3.05;;
21110;SDS011;10713;51.912;4.494;2024-02-28T04:08:12;5.85;;;2.53;;
21110;SDS011;10713;51.912;4.494;2024-02-28T04:10:38;6.70;;;3.03;;
21110;SDS011;10713;51.912;4.494;2024-02-28T04:13:03;5.78;;;2.88;;
21110;SDS011;10713;51.912;4.494;2024-02-28T04:15:30;11.68;;;3.78;;
21110;SDS011;10713;51.912;4.494;2024-02-28T04:17:55;12.43;;;3.90;;
21110;SDS011;10713;51.912;4.494;2024-02-28T04:20:21;16.70;;;4.80;;
21110;SDS011;10713;51.912;4.494;2024-02-28T04:22:46;8.48;;;4.15;;
21110;SDS011;10713;51.912;4.494;2024-02-28T04:25:11;11.60;;;4.75;;
21110;SDS011;10713;51.912;4.494;2024-02-28T04:27:37;9.13;;;4.50;;
21110;SDS011;10713;51.912;4.494;2024-02-28T04:30:03;10.13;;;4.63;;
21110;SDS011;10713;51.912;4.494;2024-02-28T04:32:32;10.18;;;4.95;;
21110;SDS011;10713;51.912;4.494;2024-02-28T04:34:57;9.25;;;4.35;;
21110;SDS011;10713;51.912;4.494;2024-02-28T04:37:22;9.38;;;4.50;;
21110;SDS011;10713;51.912;4.494;2024-02-28T04:39:48;13.55;;;5.15;;
21110;SDS011;10713;51.912;4.494;2024-02-28T04:42:14;8.18;;;3.03;;
21110;SDS011;10713;51.912;4.494;2024-02-28T04:44:41;9.65;;;4.55;;
21110;SDS011;10713;51.912;4.494;2024-02-28T04:47:06;11.13;;;5.72;;
21110;SDS011;10713;51.912;4.494;2024-02-28T04:49:32;11.13;;;5.43;;
21110;SDS011;10713;51.912;4.494;2024-02-28T04:51:57;9.50;;;4.80;;
21110;SDS011;10713;51.912;4.494;2024-02-28T04:54:23;10.27;;;5.60;;
21110;SDS011;10713;51.912;4.494;2024-02-28T04:56:49;14.18;;;6.18;;
21110;SDS011;10713;51.912;4.494;2024-02-28T04:59:16;18.33;;;6.18;;
21110;SDS011;10713;51.912;4.494;2024-02-28T05:01:41;8.95;;;4.32;;
21110;SDS011;10713;51.912;4.494;2024-02-28T05:04:08;21.52;;;5.85;;
21110;SDS011;10713;51.912;4.494;2024-02-28T05:06:34;9.88;;;5.30;;
21110;SDS011;10713;51.912;4.494;2024-02-28T05:08:59;13.07;;;5.32;;
21110;SDS011;10713;51.912;4.494;2024-02-28T05:11:25;14.55;;;5.10;;
21110;SDS011;10713;51.912;4.494;2024-02-28T05:13:50;12.80;;;5.40;;
21110;SDS011;10713;51.912;4.494;2024-02-28T05:16:16;11.95;;;5.97;;
21110;SDS011;10713;51.912;4.494;2024-02-28T05:18:42;15.00;;;5.43;;
21110;SDS011;10713;51.912;4.494;2024-02-28T05:21:09;15.98;;;6.45;;
21110;SDS011;10713;51.912;4.494;2024-02-28T05:23:35;12.48;;;5.38;;
21110;SDS011;10713;51.912;4.494;2024-02-28T05:26:01;13.35;;;6.78;;
21110;SDS011;10713;51.912;4.494;2024-02-28T05:28:29;11.98;;;6.95;;
21110;SDS011;10713;51.912;4.494;2024-02-28T05:30:55;9.68;;;5.30;;
21110;SDS011;10713;51.912;4.494;2024-02-28T05:33:21;18.02;;;5.90;;
21110;SDS011;10713;51.912;4.494;2024-02-28T05:35:46;19.00;;;6.38;;
21110;SDS011;10713;51.912;4.494;2024-02-28T05:38:11;7.93;;;4.93;;
21110;SDS011;10713;51.912;4.494;2024-02-28T05:40:37;10.95;;;5.28;;
21110;SDS011;10713;51.912;4.494;2024-02-28T05:43:02;10.95;;;6.05;;
21110;SDS011;10713;51.912;4.494;2024-02-28T05:45:29;14.07;;;5.43;;
21110;SDS011;10713;51.912;4.494;2024-02-28T05:47:54;14.45;;;5.63;;
21110;SDS011;10713;51.912;4.494;2024-02-28T05:50:20;10.50;;;5.10;;
21110;SDS011;10713;51.912;4.494;2024-02-28T05:52:45;11.57;;;5.65;;
21110;SDS011;10713;51.912;4.494;2024-02-28T05:55:11;11.18;;;5.22;;
21110;SDS011;10713;51.912;4.494;2024-02-28T05:57:36;14.40;;;5.95;;
21110;SDS011;10713;51.912;4.494;2024-02-28T06:00:02;16.08;;;5.90;;
21110;SDS011;10713;51.912;4.494;2024-02-28T06:02:34;11.82;;;4.93;;
21110;SDS011;10713;51.912;4.494;2024-02-28T06:05:00;12.52;;;5.88;;
21110;SDS011;10713;51.912;4.494;2024-02-28T06:07:26;11.30;;;5.15;;
21110;SDS011;10713;51.912;4.494;2024-02-28T06:09:51;16.88;;;5.60;;
21110;SDS011;10713;51.912;4.494;2024-02-28T06:12:16;14.45;;;5.63;;
21110;SDS011;10713;51.912;4.494;2024-02-28T06:14:42;13.80;;;6.22;;
21110;SDS011;10713;51.912;4.494;2024-02-28T06:17:07;13.57;;;5.63;;
21110;SDS011;10713;51.912;4.494;2024-02-28T06:19:32;9.98;;;5.10;;
21110;SDS011;10713;51.912;4.494;2024-02-28T06:21:58;12.40;;;6.15;;
21110;SDS011;10713;51.912;4.494;2024-02-28T06:24:23;6.75;;;3.70;;
21110;SDS011;10713;51.912;4.494;2024-02-28T06:26:48;11.10;;;5.80;;
21110;SDS011;10713;51.912;4.494;2024-02-28T06:29:14;11.25;;;5.45;;
21110;SDS011;10713;51.912;4.494;2024-02-28T06:31:40;7.15;;;3.70;;
21110;SDS011;10713;51.912;4.494;2024-02-28T06:34:05;8.43;;;3.72;;
21110;SDS011;10713;51.912;4.494;2024-02-28T06:36:30;10.32;;;5.60;;
21110;SDS011;10713;51.912;4.494;2024-02-28T06:38:56;10.27;;;4.90;;
21110;SDS011;10713;51.912;4.494;2024-02-28T06:41:23;12.18;;;6.50;;
21110;SDS011;10713;51.912;4.494;2024-02-28T06:43:48;11.13;;;5.20;;
21110;SDS011;10713;51.912;4.494;2024-02-28T06:46:13;11.00;;;5.40;;
21110;SDS011;10713;51.912;4.494;2024-02-28T06:48:39;16.00;;;6.00;;
21110;SDS011;10713;51.912;4.494;2024-02-28T06:51:04;15.07;;;6.88;;
21110;SDS011;10713;51.912;4.494;2024-02-28T06:53:29;12.65;;;6.65;;
21110;SDS011;10713;51.912;4.494;2024-02-28T06:55:55;10.43;;;5.15;;
21110;SDS011;10713;51.912;4.494;2024-02-28T06:58:20;13.30;;;6.53;;
21110;SDS011;10713;51.912;4.494;2024-02-28T07:00:46;13.30;;;5.78;;
21110;SDS011;10713;51.912;4.494;2024-02-28T07:03:13;12.57;;;5.55;;
21110;SDS011;10713;51.912;4.494;2024-02-28T07:05:38;12.77;;;6.30;;
21110;SDS011;10713;51.912;4.494;2024-02-28T07:08:03;14.93;;;5.90;;
21110;SDS011;10713;51.912;4.494;2024-02-28T07:10:29;18.92;;;7.45;;
21110;SDS011;10713;51.912;4.494;2024-02-28T07:12:55;14.18;;;6.18;;
21110;SDS011;10713;51.912;4.494;2024-02-28T07:15:20;12.25;;;5.85;;
21110;SDS011;10713;51.912;4.494;2024-02-28T07:17:46;11.38;;;4.95;;
21110;SDS011;10713;51.912;4.494;2024-02-28T07:20:12;11.02;;;5.63;;
21110;SDS011;10713;51.912;4.494;2024-02-28T07:22:38;18.38;;;6.30;;
21110;SDS011;10713;51.912;4.494;2024-02-28T07:25:03;10.95;;;5.82;;
21110;SDS011;10713;51.912;4.494;2024-02-28T07:27:30;9.43;;;4.63;;
21110;SDS011;10713;51.912;4.494;2024-02-28T07:29:55;16.98;;;6.25;;
21110;SDS011;10713;51.912;4.494;2024-02-28T07:32:21;13.25;;;5.55;;
21110;SDS011;10713;51.912;4.494;2024-02-28T07:34:46;14.73;;;6.60;;
21110;SDS011;10713;51.912;4.494;2024-02-28T07:37:11;12.57;;;6.10;;
21110;SDS011;10713;51.912;4.494;2024-02-28T07:39:37;16.50;;;6.47;;
21110;SDS011;10713;51.912;4.494;2024-02-28T07:42:02;16.40;;;6.85;;
21110;SDS011;10713;51.912;4.494;2024-02-28T07:44:28;15.35;;;6.57;;
21110;SDS011;10713;51.912;4.494;2024-02-28T07:46:55;15.50;;;7.00;;
21110;SDS011;10713;51.912;4.494;2024-02-28T07:49:22;15.57;;;6.32;;
21110;SDS011;10713;51.912;4.494;2024-02-28T07:51:48;17.73;;;7.38;;
21110;SDS011;10713;51.912;4.494;2024-02-28T07:54:13;19.67;;;7.78;;
21110;SDS011;10713;51.912;4.494;2024-02-28T07:56:38;13.80;;;6.38;;
21110;SDS011;10713;51.912;4.494;2024-02-28T07:59:04;20.98;;;7.40;;
21110;SDS011;10713;51.912;4.494;2024-02-28T08:01:29;15.80;;;7.00;;
21110;SDS011;10713;51.912;4.494;2024-02-28T08:03:55;18.92;;;7.68;;
21110;SDS011;10713;51.912;4.494;2024-02-28T08:06:21;13.02;;;7.25;;
21110;SDS011;10713;51.912;4.494;2024-02-28T08:08:47;15.88;;;5.93;;
21110;SDS011;10713;51.912;4.494;2024-02-28T08:11:12;18.63;;;8.15;;
21110;SDS011;10713;51.912;4.494;2024-02-28T08:13:38;15.15;;;7.25;;
21110;SDS011;10713;51.912;4.494;2024-02-28T08:16:03;20.98;;;7.05;;
21110;SDS011;10713;51.912;4.494;2024-02-28T08:18:29;15.65;;;7.22;;
21110;SDS011;10713;51.912;4.494;2024-02-28T08:20:54;16.05;;;6.75;;
21110;SDS011;10713;51.912;4.494;2024-02-28T08:23:22;19.48;;;7.28;;
21110;SDS011;10713;51.912;4.494;2024-02-28T08:25:48;13.05;;;6.72;;
21110;SDS011;10713;51.912;4.494;2024-02-28T08:28:13;14.75;;;6.63;;
21110;SDS011;10713;51.912;4.494;2024-02-28T08:30:39;17.17;;;8.48;;
21110;SDS011;10713;51.912;4.494;2024-02-28T08:33:05;16.10;;;6.15;;
21110;SDS011;10713;51.912;4.494;2024-02-28T08:35:32;12.63;;;6.47;;
21110;SDS011;10713;51.912;4.494;2024-02-28T08:37:57;16.60;;;7.25;;
21110;SDS011;10713;51.912;4.494;2024-02-28T08:40:22;15.95;;;7.38;;
21110;SDS011;10713;51.912;4.494;2024-02-28T08:42:48;14.90;;;6.85;;
21110;SDS011;10713;51.912;4.494;2024-02-28T08:45:17;19.83;;;6.85;;
21110;SDS011;10713;51.912;4.494;2024-02-28T08:47:43;18.83;;;6.93;;
21110;SDS011;10713;51.912;4.494;2024-02-28T08:50:09;18.92;;;7.53;;
21110;SDS011;10713;51.912;4.494;2024-02-28T08:52:35;22.02;;;7.07;;
21110;SDS011;10713;51.912;4.494;2024-02-28T08:55:01;17.77;;;7.47;;
21110;SDS011;10713;51.912;4.494;2024-02-28T08:57:26;14.65;;;7.45;;
21110;SDS011;10713;51.912;4.494;2024-02-28T08:59:52;14.65;;;6.78;;
21110;SDS011;10713;51.912;4.494;2024-02-28T09:02:18;22.58;;;8.32;;
21110;SDS011;10713;51.912;4.494;2024-02-28T09:04:44;23.10;;;8.02;;
21110;SDS011;10713;51.912;4.494;2024-02-28T09:07:10;16.13;;;7.78;;
21110;SDS011;10713;51.912;4.494;2024-02-28T09:09:40;17.13;;;7.05;;
21110;SDS011;10713;51.912;4.494;2024-02-28T09:12:06;22.05;;;9.18;;
21110;SDS011;10713;51.912;4.494;2024-02-28T09:14:32;22.88;;;9.05;;
21110;SDS011;10713;51.912;4.494;2024-02-28T09:16:57;17.83;;;7.95;;
21110;SDS011;10713;51.912;4.494;2024-02-28T09:19:28;22.23;;;9.27;;
21110;SDS011;10713;51.912;4.494;2024-02-28T09:21:54;13.65;;;7.43;;
21110;SDS011;10713;51.912;4.494;2024-02-28T09:24:19;19.70;;;8.43;;
21110;SDS011;10713;51.912;4.494;2024-02-28T09:26:45;19.35;;;8.38;;
21110;SDS011;10713;51.912;4.494;2024-02-28T09:29:10;15.70;;;7.72;;
21110;SDS011;10713;51.912;4.494;2024-02-28T09:31:35;20.95;;;8.70;;
21110;SDS011;10713;51.912;4.494;2024-02-28T09:34:01;15.30;;;7.88;;
21110;SDS011;10713;51.912;4.494;2024-02-28T09:36:31;16.98;;;8.18;;
21110;SDS011;10713;51.912;4.494;2024-02-28T09:38:56;19.02;;;7.78;;
21110;SDS011;10713;51.912;4.494;2024-02-28T09:41:21;22.70;;;8.60;;
21110;SDS011;10713;51.912;4.494;2024-02-28T09:43:48;20.23;;;8.50;;
21110;SDS011;10713;51.912;4.494;2024-02-28T09:46:13;21.10;;;8.32;;
21110;SDS011;10713;51.912;4.494;2024-02-28T09:48:39;17.90;;;7.78;;
21110;SDS011;10713;51.912;4.494;2024-02-28T09:51:08;19.63;;;9.10;;
21110;SDS011;10713;51.912;4.494;2024-02-28T09:53:37;22.27;;;8.52;;
21110;SDS011;10713;51.912;4.494;2024-02-28T09:56:03;21.92;;;8.90;;
21110;SDS011;10713;51.912;4.494;2024-02-28T09:58:31;36.38;;;10.25;;
21110;SDS011;10713;51.912;4.494;2024-02-28T10:00:58;25.90;;;9.95;;
21110;SDS011;10713;51.912;4.494;2024-02-28T10:03:28;24.10;;;9.32;;
21110;SDS011;10713;51.912;4.494;2024-02-28T10:05:55;19.27;;;7.95;;
21110;SDS011;10713;51.912;4.494;2024-02-28T10:08:20;22.20;;;9.15;;
21110;SDS011;10713;51.912;4.494;2024-02-28T10:10:46;28.23;;;10.18;;
21110;SDS011;10713;51.912;4.494;2024-02-28T10:13:12;16.42;;;7.68;;
21110;SDS011;10713;51.912;4.494;2024-02-28T10:15:38;28.38;;;9.63;;
21110;SDS011;10713;51.912;4.494;2024-02-28T10:18:04;17.73;;;8.68;;
21110;SDS011;10713;51.912;4.494;2024-02-28T10:20:32;21.83;;;10.15;;
21110;SDS011;10713;51.912;4.494;2024-02-28T10:22:58;18.15;;;8.88;;
21110;SDS011;10713;51.912;4.494;2024-02-28T10:25:24;17.42;;;8.32;;
21110;SDS011;10713;51.912;4.494;2024-02-28T10:27:51;17.38;;;8.13;;
21110;SDS011;10713;51.912;4.494;2024-02-28T10:30:16;18.38;;;8.65;;
21110;SDS011;10713;51.912;4.494;2024-02-28T10:32:49;15.23;;;7.22;;
21110;SDS011;10713;51.912;4.494;2024-02-28T10:35:16;18.90;;;8.35;;
21110;SDS011;10713;51.912;4.494;2024-02-28T10:37:44;17.63;;;7.68;;
21110;SDS011;10713;51.912;4.494;2024-02-28T10:40:11;17.02;;;7.13;;
21110;SDS011;10713;51.912;4.494;2024-02-28T10:42:38;17.42;;;8.70;;
21110;SDS011;10713;51.912;4.494;2024-02-28T10:45:07;20.85;;;8.90;;
21110;SDS011;10713;51.912;4.494;2024-02-28T10:47:35;17.73;;;6.75;;
21110;SDS011;10713;51.912;4.494;2024-02-28T10:50:06;16.17;;;7.35;;
21110;SDS011;10713;51.912;4.494;2024-02-28T10:52:35;13.80;;;5.97;;
21110;SDS011;10713;51.912;4.494;2024-02-28T10:55:08;13.40;;;5.40;;
21110;SDS011;10713;51.912;4.494;2024-02-28T10:57:34;15.30;;;6.97;;
21110;SDS011;10713;51.912;4.494;2024-02-28T11:00:02;15.75;;;7.22;;
21110;SDS011;10713;51.912;4.494;2024-02-28T11:02:30;13.00;;;6.57;;
21110;SDS011;10713;51.912;4.494;2024-02-28T11:04:56;16.75;;;5.75;;
21110;SDS011;10713;51.912;4.494;2024-02-28T11:07:24;13.73;;;6.55;;
21110;SDS011;10713;51.912;4.494;2024-02-28T11:09:53;12.35;;;4.47;;
21110;SDS011;10713;51.912;4.494;2024-02-28T11:12:26;14.90;;;5.78;;
21110;SDS011;10713;51.912;4.494;2024-02-28T11:15:02;12.85;;;6.07;;
21110;SDS011;10713;51.912;4.494;2024-02-28T11:17:31;14.35;;;6.22;;
21110;SDS011;10713;51.912;4.494;2024-02-28T11:19:57;13.63;;;6.00;;
21110;SDS011;10713;51.912;4.494;2024-02-28T11:22:23;14.75;;;6.68;;
21110;SDS011;10713;51.912;4.494;2024-02-28T11:24:48;22.70;;;7.68;;
21110;SDS011;10713;51.912;4.494;2024-02-28T11:27:17;18.27;;;6.15;;
21110;SDS011;10713;51.912;4.494;2024-02-28T11:29:43;18.83;;;6.50;;
21110;SDS011;10713;51.912;4.494;2024-02-28T11:32:10;17.60;;;7.38;;
21110;SDS011;10713;51.912;4.494;2024-02-28T11:34:37;21.00;;;7.43;;
21110;SDS011;10713;51.912;4.494;2024-02-28T11:37:04;24.25;;;8.93;;
21110;SDS011;10713;51.912;4.494;2024-02-28T11:39:30;23.63;;;8.57;;
21110;SDS011;10713;51.912;4.494;2024-02-28T11:42:08;18.50;;;7.13;;
21110;SDS011;10713;51.912;4.494;2024-02-28T11:44:34;15.93;;;7.03;;
21110;SDS011;10713;51.912;4.494;2024-02-28T11:46:59;28.27;;;8.40;;
21110;SDS011;10713;51.912;4.494;2024-02-28T11:49:25;18.40;;;7.13;;
21110;SDS011;10713;51.912;4.494;2024-02-28T11:51:50;22.55;;;8.27;;
21110;SDS011;10713;51.912;4.494;2024-02-28T11:54:15;14.15;;;6.43;;
21110;SDS011;10713;51.912;4.494;2024-02-28T11:56:41;26.80;;;9.35;;
21110;SDS011;10713;51.912;4.494;2024-02-28T11:59:06;29.25;;;9.75;;
21110;SDS011;10713;51.912;4.494;2024-02-28T12:01:34;22.75;;;7.82;;
21110;SDS011;10713;51.912;4.494;2024-02-28T12:04:02;24.40;;;8.70;;
21110;SDS011;10713;51.912;4.494;2024-02-28T12:06:32;22.80;;;8.88;;
21110;SDS011;10713;51.912;4.494;2024-02-28T12:08:59;15.55;;;7.72;;
21110;SDS011;10713;51.912;4.494;2024-02-28T12:11:25;19.27;;;7.78;;
21110;SDS011;10713;51.912;4.494;2024-02-28T12:13:54;22.50;;;8.43;;
21110;SDS011;10713;51.912;4.494;2024-02-28T12:16:23;16.38;;;6.63;;
21110;SDS011;10713;51.912;4.494;2024-02-28T12:18:49;18.70;;;6.00;;
21110;SDS011;10713;51.912;4.494;2024-02-28T12:21:16;21.15;;;7.32;;
21110;SDS011;10713;51.912;4.494;2024-02-28T12:23:41;20.92;;;8.35;;
21110;SDS011;10713;51.912;4.494;2024-02-28T12:26:07;17.48;;;6.38;;
21110;SDS011;10713;51.912;4.494;2024-02-28T12:28:32;24.40;;;8.38;;
21110;SDS011;10713;51.912;4.494;2024-02-28T12:30:57;20.08;;;7.60;;
21110;SDS011;10713;51.912;4.494;2024-02-28T12:33:23;20.25;;;7.50;;
21110;SDS011;10713;51.912;4.494;2024-02-28T12:35:48;17.08;;;8.45;;
21110;SDS011;10713;51.912;4.494;2024-02-28T12:38:13;14.07;;;5.25;;
21110;SDS011;10713;51.912;4.494;2024-02-28T12:40:40;21.67;;;8.20;;
21110;SDS011;10713;51.912;4.494;2024-02-28T12:43:07;12.10;;;6.38;;
21110;SDS011;10713;51.912;4.494;2024-02-28T12:45:32;12.20;;;4.97;;
21110;SDS011;10713;51.912;4.494;2024-02-28T12:47:58;23.75;;;8.55;;
21110;SDS011;10713;51.912;4.494;2024-02-28T12:50:23;23.90;;;8.57;;
21110;SDS011;10713;51.912;4.494;2024-02-28T12:52:49;23.45;;;9.13;;
21110;SDS011;10713;51.912;4.494;2024-02-28T12:55:18;20.48;;;9.05;;
21110;SDS011;10713;51.912;4.494;2024-02-28T12:57:44;22.40;;;9.55;;
21110;SDS011;10713;51.912;4.494;2024-02-28T13:00:10;23.45;;;8.60;;
21110;SDS011;10713;51.912;4.494;2024-02-28T13:02:35;26.85;;;11.05;;
21110;SDS011;10713;51.912;4.494;2024-02-28T13:05:01;28.33;;;9.70;;
21110;SDS011;10713;51.912;4.494;2024-02-28T13:07:26;31.77;;;10.65;;
21110;SDS011;10713;51.912;4.494;2024-02-28T13:09:52;21.63;;;9.18;;
21110;SDS011;10713;51.912;4.494;2024-02-28T13:12:18;17.40;;;8.07;;
21110;SDS011;10713;51.912;4.494;2024-02-28T13:14:44;21.92;;;9.15;;
21110;SDS011;10713;51.912;4.494;2024-02-28T13:17:10;24.08;;;9.50;;
21110;SDS011;10713;51.912;4.494;2024-02-28T13:19:36;20.88;;;8.60;;
21110;SDS011;10713;51.912;4.494;2024-02-28T13:22:01;22.42;;;8.63;;
21110;SDS011;10713;51.912;4.494;2024-02-28T13:24:27;25.35;;;8.10;;
21110;SDS011;10713;51.912;4.494;2024-02-28T13:26:52;20.27;;;8.20;;
21110;SDS011;10713;51.912;4.494;2024-02-28T13:29:17;20.88;;;8.70;;
21110;SDS011;10713;51.912;4.494;2024-02-28T13:31:43;24.58;;;9.43;;
21110;SDS011;10713;51.912;4.494;2024-02-28T13:34:08;28.05;;;9.65;;
21110;SDS011;10713;51.912;4.494;2024-02-28T13:36:33;18.40;;;8.25;;
21110;SDS011;10713;51.912;4.494;2024-02-28T13:39:01;30.95;;;10.57;;
21110;SDS011;10713;51.912;4.494;2024-02-28T13:41:28;23.33;;;9.52;;
21110;SDS011;10713;51.912;4.494;2024-02-28T13:43:53;25.52;;;10.07;;
21110;SDS011;10713;51.912;4.494;2024-02-28T13:46:19;20.45;;;8.77;;
21110;SDS011;10713;51.912;4.494;2024-02-28T13:48:44;25.48;;;9.45;;
21110;SDS011;10713;51.912;4.494;2024-02-28T13:51:10;22.77;;;9.48;;
21110;SDS011;10713;51.912;4.494;2024-02-28T13:53:35;22.35;;;10.15;;
21110;SDS011;10713;51.912;4.494;2024-02-28T13:56:01;20.52;;;8.85;;
21110;SDS011;10713;51.912;4.494;2024-02-28T13:58:26;26.88;;;9.48;;
21110;SDS011;10713;51.912;4.494;2024-02-28T14:00:52;20.88;;;7.95;;
21110;SDS011;10713;51.912;4.494;2024-02-28T14:03:17;20.55;;;7.82;;
21110;SDS011;10713;51.912;4.494;2024-02-28T14:05:42;19.05;;;7.55;;
21110;SDS011;10713;51.912;4.494;2024-02-28T14:08:08;26.15;;;8.32;;
21110;SDS011;10713;51.912;4.494;2024-02-28T14:10:34;19.13;;;8.68;;
21110;SDS011;10713;51.912;4.494;2024-02-28T14:13:00;16.92;;;7.80;;
21110;SDS011;10713;51.912;4.494;2024-02-28T14:15:25;12.38;;;6.18;;
21110;SDS011;10713;51.912;4.494;2024-02-28T14:17:51;17.05;;;7.32;;
21110;SDS011;10713;51.912;4.494;2024-02-28T14:20:16;20.05;;;7.85;;
21110;SDS011;10713;51.912;4.494;2024-02-28T14:22:42;18.75;;;7.75;;
21110;SDS011;10713;51.912;4.494;2024-02-28T14:25:16;20.75;;;8.15;;
21110;SDS011;10713;51.912;4.494;2024-02-28T14:27:46;15.45;;;7.20;;
21110;SDS011;10713;51.912;4.494;2024-02-28T14:30:12;13.13;;;5.95;;